sensor_id;sensor_type;location;lat;lon;timestamp;pressure;altitude;pressure_sealevel;temperature;humidity
15294;BME280;7748;52.474;13.454;2023-02-02T00:02:00;58734.78;;;-145.20;100.00
15294;BME280;7748;52.474;13.454;2023-02-02T00:04:29;58734.78;;;-145.20;100.00
15294;BME280;7748;52.474;13.454;2023-02-02T00:06:58;58734.78;;;-145.20;100.00
15294;BME280;7748;52.474;13.454;2023-02-02T00:09:27;58734.78;;;-145.20;100.00
15294;BME280;7748;52.474;13.454;2023-02-02T00:11:56;58734.78;;;-145.20;100.00
15294;BME280;7748;52.474;13.454;2023-02-02T00:14:25;58734.78;;;-145.20;100.00
15294;BME280;7748;52.474;13.454;2023-02-02T00:16:55;58734.78;;;-145.20;100.00
15294;BME280;7748;52.474;13.454;2023-02-02T00:19:24;58734.78;;;-145.20;100.00
15294;BME280;7748;52.474;13.454;2023-02-02T00:21:53;58734.78;;;-145.20;100.00
15294;BME280;7748;52.474;13.454;2023-02-02T00:24:22;58734.78;;;-145.20;100.00
15294;BME280;7748;52.474;13.454;2023-02-02T00:26:51;58734.78;;;-145.20;100.00
15294;BME280;7748;52.474;13.454;2023-02-02T00:29:21;58734.78;;;-145.20;100.00
15294;BME280;7748;52.474;13.454;2023-02-02T00:31:49;58734.78;;;-145.20;100.00
15294;BME280;7748;52.474;13.454;2023-02-02T00:34:19;58734.78;;;-145.20;100.00
15294;BME280;7748;52.474;13.454;2023-02-02T00:36:48;58734.78;;;-145.20;100.00
15294;BME280;7748;52.474;13.454;2023-02-02T00:39:18;58734.78;;;-145.20;100.00
15294;BME280;7748;52.474;13.454;2023-02-02T00:41:46;58734.78;;;-145.20;100.00
15294;BME280;7748;52.474;13.454;2023-02-02T00:44:14;58734.78;;;-145.20;100.00
15294;BME280;7748;52.474;13.454;2023-02-02T00:47:08;58734.78;;;-145.20;100.00
15294;BME280;7748;52.474;13.454;2023-02-02T00:49:37;58734.78;;;-145.20;100.00
15294;BME280;7748;52.474;13.454;2023-02-02T00:52:05;58734.78;;;-145.20;100.00
15294;BME280;7748;52.474;13.454;2023-02-02T00:54:33;58734.78;;;-145.20;100.00
15294;BME280;7748;52.474;13.454;2023-02-02T00:57:01;58734.78;;;-145.20;100.00
15294;BME280;7748;52.474;13.454;2023-02-02T00:59:28;58734.78;;;-145.20;100.00
15294;BME280;7748;52.474;13.454;2023-02-02T01:01:56;58734.78;;;-145.20;100.00
15294;BME280;7748;52.474;13.454;2023-02-02T01:04:24;58734.78;;;-145.20;100.00
15294;BME280;7748;52.474;13.454;2023-02-02T01:06:53;58734.78;;;-145.20;100.00
15294;BME280;7748;52.474;13.454;2023-02-02T01:09:21;58734.78;;;-145.20;100.00
15294;BME280;7748;52.474;13.454;2023-02-02T01:11:49;58734.78;;;-145.20;100.00
15294;BME280;7748;52.474;13.454;2023-02-02T01:14:17;58734.78;;;-145.20;100.00
15294;BME280;7748;52.474;13.454;2023-02-02T01:16:45;58734.78;;;-145.20;100.00
15294;BME280;7748;52.474;13.454;2023-02-02T01:19:13;58734.78;;;-145.20;100.00
15294;BME280;7748;52.474;13.454;2023-02-02T01:21:41;58734.78;;;-145.20;100.00
15294;BME280;7748;52.474;13.454;2023-02-02T01:24:11;58734.78;;;-145.20;100.00
15294;BME280;7748;52.474;13.454;2023-02-02T01:26:39;58734.78;;;-145.20;100.00
15294;BME280;7748;52.474;13.454;2023-02-02T01:29:06;58734.78;;;-145.20;100.00
15294;BME280;7748;52.474;13.454;2023-02-02T01:31:34;58734.78;;;-145.20;100.00
15294;BME280;7748;52.474;13.454;2023-02-02T01:34:02;58734.78;;;-145.20;100.00
15294;BME280;7748;52.474;13.454;2023-02-02T01:36:30;58734.78;;;-145.20;100.00
15294;BME280;7748;52.474;13.454;2023-02-02T01:38:57;58734.78;;;-145.20;100.00
15294;BME280;7748;52.474;13.454;2023-02-02T01:41:27;58734.78;;;-145.20;100.00
15294;BME280;7748;52.474;13.454;2023-02-02T01:43:57;58734.78;;;-145.20;100.00
15294;BME280;7748;52.474;13.454;2023-02-02T01:46:27;58734.78;;;-145.20;100.00
15294;BME280;7748;52.474;13.454;2023-02-02T01:49:02;58734.78;;;-145.20;100.00
15294;BME280;7748;52.474;13.454;2023-02-02T01:51:40;58734.78;;;-145.20;100.00
15294;BME280;7748;52.474;13.454;2023-02-02T01:54:11;58734.78;;;-145.20;100.00
15294;BME280;7748;52.474;13.454;2023-02-02T01:56:45;58734.78;;;-145.20;100.00
15294;BME280;7748;52.474;13.454;2023-02-02T01:59:16;58734.78;;;-145.20;100.00
15294;BME280;7748;52.474;13.454;2023-02-02T02:01:46;58734.78;;;-145.20;100.00
15294;BME280;7748;52.474;13.454;2023-02-02T02:04:14;58734.78;;;-145.20;100.00
15294;BME280;7748;52.474;13.454;2023-02-02T02:06:42;58734.78;;;-145.20;100.00
15294;BME280;7748;52.474;13.454;2023-02-02T02:09:11;58734.78;;;-145.20;100.00
15294;BME280;7748;52.474;13.454;2023-02-02T02:11:39;58734.78;;;-145.20;100.00
15294;BME280;7748;52.474;13.454;2023-02-02T02:14:09;58734.78;;;-145.20;100.00
15294;BME280;7748;52.474;13.454;2023-02-02T02:17:07;58734.78;;;-145.20;100.00
15294;BME280;7748;52.474;13.454;2023-02-02T02:23:36;58734.78;;;-145.20;100.00
15294;BME280;7748;52.474;13.454;2023-02-02T02:26:42;58734.78;;;-145.20;100.00
15294;BME280;7748;52.474;13.454;2023-02-02T02:29:51;58734.78;;;-145.20;100.00
15294;BME280;7748;52.474;13.454;2023-02-02T02:32:26;58734.78;;;-145.20;100.00
15294;BME280;7748;52.474;13.454;2023-02-02T02:35:02;58734.78;;;-145.20;100.00
15294;BME280;7748;52.474;13.454;2023-02-02T02:37:37;58734.78;;;-145.20;100.00
15294;BME280;7748;52.474;13.454;2023-02-02T02:40:10;58734.78;;;-145.20;100.00
15294;BME280;7748;52.474;13.454;2023-02-02T02:42:44;58734.78;;;-145.20;100.00
15294;BME280;7748;52.474;13.454;2023-02-02T02:45:15;58734.78;;;-145.20;100.00
15294;BME280;7748;52.474;13.454;2023-02-02T02:47:46;58734.78;;;-145.20;100.00
15294;BME280;7748;52.474;13.454;2023-02-02T02:50:15;58734.78;;;-145.20;100.00
15294;BME280;7748;52.474;13.454;2023-02-02T02:52:44;58734.78;;;-145.20;100.00
15294;BME280;7748;52.474;13.454;2023-02-02T02:55:14;58734.78;;;-145.20;100.00
15294;BME280;7748;52.474;13.454;2023-02-02T02:57:59;58734.78;;;-145.20;100.00
15294;BME280;7748;52.474;13.454;2023-02-02T03:00:47;58734.78;;;-145.20;100.00
15294;BME280;7748;52.474;13.454;2023-02-02T03:03:44;58734.78;;;-145.20;100.00
15294;BME280;7748;52.474;13.454;2023-02-02T03:06:20;58734.78;;;-145.20;100.00
15294;BME280;7748;52.474;13.454;2023-02-02T03:08:53;58734.78;;;-145.20;100.00
15294;BME280;7748;52.474;13.454;2023-02-02T03:11:22;58734.78;;;-145.20;100.00
15294;BME280;7748;52.474;13.454;2023-02-02T03:13:50;58734.78;;;-145.20;100.00
15294;BME280;7748;52.474;13.454;2023-02-02T03:16:18;58734.78;;;-145.20;100.00
15294;BME280;7748;52.474;13.454;2023-02-02T03:18:47;58734.78;;;-145.20;100.00
15294;BME280;7748;52.474;13.454;2023-02-02T03:21:15;58734.78;;;-145.20;100.00
15294;BME280;7748;52.474;13.454;2023-02-02T03:23:42;58734.78;;;-145.20;100.00
15294;BME280;7748;52.474;13.454;2023-02-02T03:26:10;58734.78;;;-145.20;100.00
15294;BME280;7748;52.474;13.454;2023-02-02T03:28:38;58734.78;;;-145.20;100.00
15294;BME280;7748;52.474;13.454;2023-02-02T03:31:06;58734.78;;;-145.20;100.00
15294;BME280;7748;52.474;13.454;2023-02-02T03:33:35;58734.78;;;-145.20;100.00
15294;BME280;7748;52.474;13.454;2023-02-02T03:36:05;58734.78;;;-145.20;100.00
15294;BME280;7748;52.474;13.454;2023-02-02T03:38:33;58734.78;;;190.51;100.00
15294;BME280;7748;52.474;13.454;2023-02-02T03:41:01;58734.78;;;-145.20;100.00
15294;BME280;7748;52.474;13.454;2023-02-02T03:43:29;58734.78;;;-145.20;100.00
15294;BME280;7748;52.474;13.454;2023-02-02T03:45:57;58734.78;;;-145.20;100.00
15294;BME280;7748;52.474;13.454;2023-02-02T03:48:25;58734.78;;;-145.20;100.00
15294;BME280;7748;52.474;13.454;2023-02-02T03:50:53;58734.78;;;12.01;100.00
15294;BME280;7748;52.474;13.454;2023-02-02T03:53:22;58734.78;;;5.07;100.00
15294;BME280;7748;52.474;13.454;2023-02-02T03:55:50;58734.78;;;-145.20;100.00
15294;BME280;7748;52.474;13.454;2023-02-02T03:58:18;58734.78;;;-145.20;100.00
15294;BME280;7748;52.474;13.454;2023-02-02T04:00:47;58734.78;;;-145.20;100.00
15294;BME280;7748;52.474;13.454;2023-02-02T04:03:15;58734.78;;;-145.20;100.00
15294;BME280;7748;52.474;13.454;2023-02-02T04:05:43;58734.78;;;-145.20;100.00
15294;BME280;7748;52.474;13.454;2023-02-02T04:08:11;58734.78;;;-145.20;100.00
15294;BME280;7748;52.474;13.454;2023-02-02T04:10:40;58734.78;;;-145.20;100.00
15294;BME280;7748;52.474;13.454;2023-02-02T04:13:08;58734.78;;;-145.20;100.00
15294;BME280;7748;52.474;13.454;2023-02-02T04:15:36;58734.78;;;-145.20;100.00
15294;BME280;7748;52.474;13.454;2023-02-02T04:18:04;58734.78;;;-145.20;100.00
15294;BME280;7748;52.474;13.454;2023-02-02T04:20:32;58734.78;;;-145.20;100.00
15294;BME280;7748;52.474;13.454;2023-02-02T04:23:00;58734.78;;;-145.20;100.00
15294;BME280;7748;52.474;13.454;2023-02-02T04:25:27;58734.78;;;-145.20;100.00
15294;BME280;7748;52.474;13.454;2023-02-02T04:27:57;58734.78;;;-145.20;100.00
15294;BME280;7748;52.474;13.454;2023-02-02T04:30:24;58734.78;;;-145.20;100.00
15294;BME280;7748;52.474;13.454;2023-02-02T04:32:53;58734.78;;;-145.20;100.00
15294;BME280;7748;52.474;13.454;2023-02-02T04:35:21;58734.78;;;-145.20;100.00
15294;BME280;7748;52.474;13.454;2023-02-02T04:37:49;58734.78;;;-145.20;100.00
15294;BME280;7748;52.474;13.454;2023-02-02T04:40:18;58734.78;;;-145.20;100.00
15294;BME280;7748;52.474;13.454;2023-02-02T04:42:46;58734.78;;;-145.20;100.00
15294;BME280;7748;52.474;13.454;2023-02-02T04:45:15;58734.78;;;-145.20;100.00
15294;BME280;7748;52.474;13.454;2023-02-02T04:47:43;58734.78;;;-145.20;100.00
15294;BME280;7748;52.474;13.454;2023-02-02T04:50:10;58734.78;;;-145.20;100.00
15294;BME280;7748;52.474;13.454;2023-02-02T04:52:38;58734.78;;;-145.20;100.00
15294;BME280;7748;52.474;13.454;2023-02-02T04:55:07;58734.78;;;-145.20;100.00
15294;BME280;7748;52.474;13.454;2023-02-02T04:57:35;58734.78;;;-145.20;100.00
15294;BME280;7748;52.474;13.454;2023-02-02T05:00:03;58734.78;;;-145.20;100.00
15294;BME280;7748;52.474;13.454;2023-02-02T05:02:36;58734.78;;;-145.20;100.00
15294;BME280;7748;52.474;13.454;2023-02-02T05:05:05;58734.78;;;-145.20;100.00
15294;BME280;7748;52.474;13.454;2023-02-02T05:07:33;58734.78;;;-145.20;100.00
15294;BME280;7748;52.474;13.454;2023-02-02T05:10:01;58734.78;;;-145.20;100.00
15294;BME280;7748;52.474;13.454;2023-02-02T05:12:29;58734.78;;;-145.20;100.00
15294;BME280;7748;52.474;13.454;2023-02-02T05:14:57;58734.78;;;-145.20;100.00
15294;BME280;7748;52.474;13.454;2023-02-02T05:17:26;58734.78;;;-145.20;100.00
15294;BME280;7748;52.474;13.454;2023-02-02T05:19:55;58734.78;;;-145.20;100.00
15294;BME280;7748;52.474;13.454;2023-02-02T05:22:23;58734.78;;;-145.20;100.00
15294;BME280;7748;52.474;13.454;2023-02-02T05:24:51;58734.78;;;-145.20;100.00
15294;BME280;7748;52.474;13.454;2023-02-02T05:27:19;58734.78;;;-145.20;100.00
15294;BME280;7748;52.474;13.454;2023-02-02T05:29:47;58734.78;;;-145.20;100.00
15294;BME280;7748;52.474;13.454;2023-02-02T05:32:15;58734.78;;;-145.20;100.00
15294;BME280;7748;52.474;13.454;2023-02-02T05:34:42;58734.78;;;-145.20;100.00
15294;BME280;7748;52.474;13.454;2023-02-02T05:37:12;58734.78;;;-145.20;100.00
15294;BME280;7748;52.474;13.454;2023-02-02T05:39:39;58734.78;;;-145.20;100.00
15294;BME280;7748;52.474;13.454;2023-02-02T05:42:07;58734.78;;;-145.20;100.00
15294;BME280;7748;52.474;13.454;2023-02-02T05:44:35;58734.78;;;-145.20;100.00
15294;BME280;7748;52.474;13.454;2023-02-02T05:47:03;58734.78;;;-145.20;100.00
15294;BME280;7748;52.474;13.454;2023-02-02T05:49:31;58734.78;;;-145.20;100.00
15294;BME280;7748;52.474;13.454;2023-02-02T05:51:58;58734.78;;;-145.20;100.00
15294;BME280;7748;52.474;13.454;2023-02-02T05:54:28;58734.78;;;-145.20;100.00
15294;BME280;7748;52.474;13.454;2023-02-02T05:56:55;58734.78;;;-145.20;100.00
15294;BME280;7748;52.474;13.454;2023-02-02T05:59:26;58734.78;;;-145.20;100.00
15294;BME280;7748;52.474;13.454;2023-02-02T06:01:54;58734.78;;;-145.20;100.00
15294;BME280;7748;52.474;13.454;2023-02-02T06:04:22;100720.31;;;5.10;100.00
15294;BME280;7748;52.474;13.454;2023-02-02T06:06:50;100736.00;;;5.15;100.00
15294;BME280;7748;52.474;13.454;2023-02-02T06:09:18;100743.13;;;5.19;100.00
15294;BME280;7748;52.474;13.454;2023-02-02T06:11:47;100741.16;;;5.15;100.00
15294;BME280;7748;52.474;13.454;2023-02-02T06:14:15;100758.56;;;5.19;100.00
15294;BME280;7748;52.474;13.454;2023-02-02T06:16:42;100759.63;;;5.22;100.00
15294;BME280;7748;52.474;13.454;2023-02-02T06:19:10;100760.53;;;5.23;100.00
15294;BME280;7748;52.474;13.454;2023-02-02T06:21:38;100761.31;;;5.22;100.00
15294;BME280;7748;52.474;13.454;2023-02-02T06:24:06;100774.56;;;5.13;100.00
15294;BME280;7748;52.474;13.454;2023-02-02T06:26:34;100773.13;;;5.18;100.00
15294;BME280;7748;52.474;13.454;2023-02-02T06:29:03;100783.59;;;5.21;100.00
15294;BME280;7748;52.474;13.454;2023-02-02T06:31:32;100780.25;;;5.22;100.00
15294;BME280;7748;52.474;13.454;2023-02-02T06:34:00;100783.97;;;5.27;100.00
15294;BME280;7748;52.474;13.454;2023-02-02T06:36:28;100782.81;;;5.22;100.00
15294;BME280;7748;52.474;13.454;2023-02-02T06:38:56;100789.09;;;5.27;100.00
15294;BME280;7748;52.474;13.454;2023-02-02T06:41:33;100788.13;;;5.25;100.00
15294;BME280;7748;52.474;13.454;2023-02-02T06:44:03;100806.31;;;5.28;100.00
15294;BME280;7748;52.474;13.454;2023-02-02T06:46:31;100800.84;;;5.22;100.00
15294;BME280;7748;52.474;13.454;2023-02-02T06:48:59;100806.78;;;5.21;100.00
15294;BME280;7748;52.474;13.454;2023-02-02T06:51:26;100812.53;;;5.17;100.00
15294;BME280;7748;52.474;13.454;2023-02-02T06:53:54;100807.59;;;5.20;100.00
15294;BME280;7748;52.474;13.454;2023-02-02T06:56:25;100827.31;;;5.20;100.00
15294;BME280;7748;52.474;13.454;2023-02-02T06:58:52;100819.31;;;5.15;100.00
15294;BME280;7748;52.474;13.454;2023-02-02T07:01:21;100839.22;;;5.18;100.00
15294;BME280;7748;52.474;13.454;2023-02-02T07:03:50;100840.25;;;5.21;100.00
15294;BME280;7748;52.474;13.454;2023-02-02T07:06:19;100839.22;;;5.18;100.00
15294;BME280;7748;52.474;13.454;2023-02-02T07:08:48;100846.22;;;5.20;100.00
15294;BME280;7748;52.474;13.454;2023-02-02T07:11:27;100846.84;;;5.16;100.00
15294;BME280;7748;52.474;13.454;2023-02-02T07:13:55;100860.53;;;5.15;100.00
15294;BME280;7748;52.474;13.454;2023-02-02T07:16:25;100870.03;;;5.16;100.00
15294;BME280;7748;52.474;13.454;2023-02-02T07:18:53;100874.47;;;5.19;100.00
15294;BME280;7748;52.474;13.454;2023-02-02T07:21:22;100876.31;;;5.21;100.00
15294;BME280;7748;52.474;13.454;2023-02-02T07:23:50;100877.41;;;5.25;100.00
15294;BME280;7748;52.474;13.454;2023-02-02T07:26:18;100885.19;;;5.26;100.00
15294;BME280;7748;52.474;13.454;2023-02-02T07:28:46;100889.63;;;5.29;100.00
15294;BME280;7748;52.474;13.454;2023-02-02T07:31:18;100888.75;;;5.28;100.00
15294;BME280;7748;52.474;13.454;2023-02-02T07:34:00;100905.00;;;5.27;100.00
15294;BME280;7748;52.474;13.454;2023-02-02T07:36:28;100899.59;;;5.23;100.00
15294;BME280;7748;52.474;13.454;2023-02-02T07:38:56;100902.69;;;5.17;100.00
15294;BME280;7748;52.474;13.454;2023-02-02T07:41:25;58734.78;;;-145.20;100.00
15294;BME280;7748;52.474;13.454;2023-02-02T07:43:53;58734.78;;;-145.20;100.00
15294;BME280;7748;52.474;13.454;2023-02-02T07:46:21;58734.78;;;-145.20;100.00
15294;BME280;7748;52.474;13.454;2023-02-02T07:48:52;58734.78;;;-145.20;100.00
15294;BME280;7748;52.474;13.454;2023-02-02T07:51:22;58734.78;;;-145.20;100.00
15294;BME280;7748;52.474;13.454;2023-02-02T07:53:52;58734.78;;;-145.20;100.00
15294;BME280;7748;52.474;13.454;2023-02-02T07:56:24;58734.78;;;-145.20;100.00
15294;BME280;7748;52.474;13.454;2023-02-02T07:58:54;58734.78;;;-145.20;100.00
15294;BME280;7748;52.474;13.454;2023-02-02T08:01:23;58734.78;;;-145.20;100.00
15294;BME280;7748;52.474;13.454;2023-02-02T08:03:52;58734.78;;;-145.20;100.00
15294;BME280;7748;52.474;13.454;2023-02-02T08:06:24;58734.78;;;-145.20;100.00
15294;BME280;7748;52.474;13.454;2023-02-02T08:08:53;58734.78;;;-145.20;100.00
15294;BME280;7748;52.474;13.454;2023-02-02T08:11:22;58734.78;;;-145.20;100.00
15294;BME280;7748;52.474;13.454;2023-02-02T08:13:52;58734.78;;;-145.20;100.00
15294;BME280;7748;52.474;13.454;2023-02-02T08:16:20;58734.78;;;-145.20;100.00
15294;BME280;7748;52.474;13.454;2023-02-02T08:18:48;58734.78;;;-145.20;100.00
15294;BME280;7748;52.474;13.454;2023-02-02T08:21:16;58734.78;;;-145.20;100.00
15294;BME280;7748;52.474;13.454;2023-02-02T08:23:46;58734.78;;;-145.20;100.00
15294;BME280;7748;52.474;13.454;2023-02-02T08:26:16;58734.78;;;-145.20;100.00
15294;BME280;7748;52.474;13.454;2023-02-02T08:28:47;58734.78;;;-145.20;100.00
15294;BME280;7748;52.474;13.454;2023-02-02T08:31:16;58734.78;;;-145.20;100.00
15294;BME280;7748;52.474;13.454;2023-02-02T08:33:45;58734.78;;;-145.20;100.00
15294;BME280;7748;52.474;13.454;2023-02-02T08:36:13;58734.78;;;-145.20;100.00
15294;BME280;7748;52.474;13.454;2023-02-02T08:38:42;58734.78;;;-145.20;100.00
15294;BME280;7748;52.474;13.454;2023-02-02T08:41:14;58734.78;;;-145.20;100.00
15294;BME280;7748;52.474;13.454;2023-02-02T08:43:42;58734.78;;;-145.20;100.00
15294;BME280;7748;52.474;13.454;2023-02-02T08:46:11;58734.78;;;-145.20;100.00
15294;BME280;7748;52.474;13.454;2023-02-02T08:48:40;58734.78;;;-145.20;100.00
15294;BME280;7748;52.474;13.454;2023-02-02T08:51:10;58734.78;;;-145.20;100.00
15294;BME280;7748;52.474;13.454;2023-02-02T08:53:40;58734.78;;;-145.20;100.00
15294;BME280;7748;52.474;13.454;2023-02-02T08:56:11;58734.78;;;-145.20;100.00
15294;BME280;7748;52.474;13.454;2023-02-02T08:58:43;58734.78;;;-145.20;100.00
15294;BME280;7748;52.474;13.454;2023-02-02T09:01:13;58734.78;;;-145.20;100.00
15294;BME280;7748;52.474;13.454;2023-02-02T09:03:42;58734.78;;;-145.20;100.00
15294;BME280;7748;52.474;13.454;2023-02-02T09:06:11;58734.78;;;-145.20;100.00
15294;BME280;7748;52.474;13.454;2023-02-02T09:08:40;58734.78;;;-145.20;100.00
15294;BME280;7748;52.474;13.454;2023-02-02T09:11:09;58734.78;;;-145.20;100.00
15294;BME280;7748;52.474;13.454;2023-02-02T09:13:40;58734.78;;;-145.20;100.00
15294;BME280;7748;52.474;13.454;2023-02-02T09:16:09;58734.78;;;-145.20;100.00
15294;BME280;7748;52.474;13.454;2023-02-02T09:18:37;58734.78;;;-145.20;100.00
15294;BME280;7748;52.474;13.454;2023-02-02T09:21:07;58734.78;;;-145.20;100.00
15294;BME280;7748;52.474;13.454;2023-02-02T09:23:38;58734.78;;;-145.20;100.00
15294;BME280;7748;52.474;13.454;2023-02-02T09:26:10;58734.78;;;-145.20;100.00
15294;BME280;7748;52.474;13.454;2023-02-02T09:28:41;58734.78;;;-145.20;100.00
15294;BME280;7748;52.474;13.454;2023-02-02T09:31:10;58734.78;;;-145.20;100.00
15294;BME280;7748;52.474;13.454;2023-02-02T09:33:38;58734.78;;;-145.20;100.00
15294;BME280;7748;52.474;13.454;2023-02-02T09:36:07;58734.78;;;-145.20;100.00
15294;BME280;7748;52.474;13.454;2023-02-02T09:38:36;58734.78;;;-145.20;100.00
15294;BME280;7748;52.474;13.454;2023-02-02T09:41:43;58734.78;;;-145.20;100.00
15294;BME280;7748;52.474;13.454;2023-02-02T09:44:28;58734.78;;;-145.20;100.00
15294;BME280;7748;52.474;13.454;2023-02-02T09:47:07;58734.78;;;-145.20;100.00
15294;BME280;7748;52.474;13.454;2023-02-02T09:49:45;58734.78;;;-145.20;100.00
15294;BME280;7748;52.474;13.454;2023-02-02T09:52:21;58734.78;;;-145.20;100.00
15294;BME280;7748;52.474;13.454;2023-02-02T09:54:52;58734.78;;;-145.20;100.00
15294;BME280;7748;52.474;13.454;2023-02-02T09:57:23;58734.78;;;-145.20;100.00
15294;BME280;7748;52.474;13.454;2023-02-02T09:59:53;58734.78;;;-145.20;100.00
15294;BME280;7748;52.474;13.454;2023-02-02T10:02:24;58734.78;;;-145.20;100.00
15294;BME280;7748;52.474;13.454;2023-02-02T10:05:04;58734.78;;;-145.20;100.00
15294;BME280;7748;52.474;13.454;2023-02-02T10:07:39;58734.78;;;-145.20;100.00
15294;BME280;7748;52.474;13.454;2023-02-02T10:10:12;58734.78;;;-145.20;100.00
15294;BME280;7748;52.474;13.454;2023-02-02T10:12:48;58734.78;;;-145.20;100.00
15294;BME280;7748;52.474;13.454;2023-02-02T10:15:28;58734.78;;;-145.20;100.00
15294;BME280;7748;52.474;13.454;2023-02-02T10:18:05;58734.78;;;-145.20;100.00
15294;BME280;7748;52.474;13.454;2023-02-02T10:20:41;58734.78;;;-145.20;100.00
15294;BME280;7748;52.474;13.454;2023-02-02T10:23:19;58734.78;;;-145.20;100.00
15294;BME280;7748;52.474;13.454;2023-02-02T10:25:54;58734.78;;;-145.20;100.00
15294;BME280;7748;52.474;13.454;2023-02-02T10:28:40;58734.78;;;-145.20;100.00
15294;BME280;7748;52.474;13.454;2023-02-02T10:31:16;58734.78;;;-145.20;100.00
15294;BME280;7748;52.474;13.454;2023-02-02T10:33:54;58734.78;;;-145.20;100.00
15294;BME280;7748;52.474;13.454;2023-02-02T10:36:33;58734.78;;;-145.20;100.00
15294;BME280;7748;52.474;13.454;2023-02-02T10:39:09;58734.78;;;-145.20;100.00
15294;BME280;7748;52.474;13.454;2023-02-02T10:41:48;58734.78;;;-145.20;100.00
15294;BME280;7748;52.474;13.454;2023-02-02T10:44:25;58734.78;;;-145.20;100.00
15294;BME280;7748;52.474;13.454;2023-02-02T10:46:59;58734.78;;;-145.20;100.00
15294;BME280;7748;52.474;13.454;2023-02-02T10:49:30;58734.78;;;-145.20;100.00
15294;BME280;7748;52.474;13.454;2023-02-02T10:52:04;58734.78;;;-145.20;100.00
15294;BME280;7748;52.474;13.454;2023-02-02T10:54:46;58734.78;;;-145.20;100.00
15294;BME280;7748;52.474;13.454;2023-02-02T10:57:31;58734.78;;;-145.20;100.00
15294;BME280;7748;52.474;13.454;2023-02-02T11:00:05;58734.78;;;-145.20;100.00
15294;BME280;7748;52.474;13.454;2023-02-02T11:02:38;58734.78;;;-145.20;100.00
15294;BME280;7748;52.474;13.454;2023-02-02T11:05:12;58734.78;;;-145.20;100.00
15294;BME280;7748;52.474;13.454;2023-02-02T11:07:59;58734.78;;;-145.20;100.00
15294;BME280;7748;52.474;13.454;2023-02-02T11:10:27;58734.78;;;-145.20;100.00
15294;BME280;7748;52.474;13.454;2023-02-02T11:12:55;58734.78;;;-145.20;100.00
15294;BME280;7748;52.474;13.454;2023-02-02T11:15:29;58734.78;;;-145.20;100.00
15294;BME280;7748;52.474;13.454;2023-02-02T11:18:11;58734.78;;;-145.20;100.00
15294;BME280;7748;52.474;13.454;2023-02-02T11:20:41;58734.78;;;-145.20;100.00
15294;BME280;7748;52.474;13.454;2023-02-02T11:23:16;58734.78;;;-145.20;100.00
15294;BME280;7748;52.474;13.454;2023-02-02T11:25:56;58734.78;;;-145.20;100.00
15294;BME280;7748;52.474;13.454;2023-02-02T11:28:25;58734.78;;;-145.20;100.00
15294;BME280;7748;52.474;13.454;2023-02-02T11:30:57;58734.78;;;-145.20;100.00
15294;BME280;7748;52.474;13.454;2023-02-02T11:33:29;58734.78;;;-145.20;100.00
15294;BME280;7748;52.474;13.454;2023-02-02T11:36:00;58734.78;;;-145.20;100.00
15294;BME280;7748;52.474;13.454;2023-02-02T11:38:28;58734.78;;;-145.20;100.00
15294;BME280;7748;52.474;13.454;2023-02-02T11:40:58;58734.78;;;-145.20;100.00
15294;BME280;7748;52.474;13.454;2023-02-02T11:43:30;58734.78;;;-145.20;100.00
15294;BME280;7748;52.474;13.454;2023-02-02T11:46:01;58734.78;;;-145.20;100.00
15294;BME280;7748;52.474;13.454;2023-02-02T11:48:34;58734.78;;;-145.20;100.00
15294;BME280;7748;52.474;13.454;2023-02-02T11:51:03;58734.78;;;-145.20;100.00
15294;BME280;7748;52.474;13.454;2023-02-02T11:53:34;58734.78;;;-145.20;100.00
15294;BME280;7748;52.474;13.454;2023-02-02T11:56:06;58734.78;;;-145.20;100.00
15294;BME280;7748;52.474;13.454;2023-02-02T11:58:43;58734.78;;;-145.20;100.00
15294;BME280;7748;52.474;13.454;2023-02-02T12:01:23;58734.78;;;-145.20;100.00
15294;BME280;7748;52.474;13.454;2023-02-02T12:03:54;58734.78;;;-145.20;100.00
15294;BME280;7748;52.474;13.454;2023-02-02T12:06:24;58734.78;;;-145.20;100.00
15294;BME280;7748;52.474;13.454;2023-02-02T12:08:54;58734.78;;;-145.20;100.00
15294;BME280;7748;52.474;13.454;2023-02-02T12:11:39;58734.78;;;-145.20;100.00
15294;BME280;7748;52.474;13.454;2023-02-02T12:14:24;58734.78;;;-145.20;100.00
15294;BME280;7748;52.474;13.454;2023-02-02T12:17:02;58734.78;;;-145.20;100.00
15294;BME280;7748;52.474;13.454;2023-02-02T12:19:50;58734.78;;;-145.20;100.00
15294;BME280;7748;52.474;13.454;2023-02-02T12:22:36;58734.78;;;-145.20;100.00
15294;BME280;7748;52.474;13.454;2023-02-02T12:25:25;58734.78;;;-145.20;100.00
15294;BME280;7748;52.474;13.454;2023-02-02T12:28:02;58734.78;;;-145.20;100.00
15294;BME280;7748;52.474;13.454;2023-02-02T12:30:41;58734.78;;;-145.20;100.00
15294;BME280;7748;52.474;13.454;2023-02-02T12:33:22;58734.78;;;-145.20;100.00
15294;BME280;7748;52.474;13.454;2023-02-02T12:36:17;58734.78;;;-145.20;100.00
15294;BME280;7748;52.474;13.454;2023-02-02T12:39:02;58734.78;;;-145.20;100.00
15294;BME280;7748;52.474;13.454;2023-02-02T12:41:54;58734.78;;;-145.20;100.00
15294;BME280;7748;52.474;13.454;2023-02-02T12:44:36;58734.78;;;-145.20;100.00
15294;BME280;7748;52.474;13.454;2023-02-02T12:47:15;58734.78;;;-145.20;100.00
15294;BME280;7748;52.474;13.454;2023-02-02T12:50:03;58734.78;;;-145.20;100.00
15294;BME280;7748;52.474;13.454;2023-02-02T12:52:51;58734.78;;;-145.20;100.00
15294;BME280;7748;52.474;13.454;2023-02-02T12:55:26;58734.78;;;-145.20;100.00
15294;BME280;7748;52.474;13.454;2023-02-02T12:58:04;58734.78;;;-145.20;100.00
15294;BME280;7748;52.474;13.454;2023-02-02T13:00:53;58734.78;;;-145.20;100.00